createdAt,value
2023-12-20T00:02:54.896Z,2.10
2023-12-20T00:07:58.441Z,1.73
2023-12-20T00:13:02.879Z,2.27
2023-12-20T00:18:08.651Z,2.00
2023-12-20T00:23:12.110Z,2.00
2023-12-20T00:28:16.456Z,2.30
2023-12-20T00:33:21.966Z,2.30
2023-12-20T00:38:25.410Z,2.20
2023-12-20T00:43:29.189Z,1.97
2023-12-20T00:48:34.076Z,2.10
2023-12-20T00:53:38.373Z,1.80
2023-12-20T00:58:41.765Z,1.60
2023-12-20T01:03:46.798Z,1.77
2023-12-20T01:08:50.927Z,1.80
2023-12-20T01:13:54.275Z,1.70
2023-12-20T01:19:00.999Z,1.87
2023-12-20T01:24:04.974Z,1.90
2023-12-20T01:29:08.913Z,1.83
2023-12-20T01:34:14.438Z,1.70
2023-12-20T01:39:27.704Z,1.87
2023-12-20T01:44:34.113Z,1.70
2023-12-20T01:49:39.413Z,1.90
2023-12-20T01:54:42.987Z,1.73
2023-12-20T01:59:47.288Z,1.70
2023-12-20T02:04:52.378Z,1.90
2023-12-20T02:09:55.891Z,1.97
2023-12-20T02:14:59.976Z,1.97
2023-12-20T02:20:07.112Z,2.17
2023-12-20T02:25:12.142Z,1.97
2023-12-20T02:30:18.121Z,2.50
2023-12-20T02:35:23.260Z,1.27
2023-12-20T02:40:49.713Z,1.20
2023-12-20T02:46:43.597Z,1.40
2023-12-20T02:52:28.810Z,1.60
2023-12-20T02:58:31.251Z,1.60
2023-12-20T03:10:59.785Z,1.60
2023-12-20T05:13:20.585Z,1.20
2023-12-20T05:18:56.569Z,0.80
2023-12-20T05:24:21.555Z,0.90
2023-12-20T05:29:40.599Z,1.03
2023-12-20T05:34:48.076Z,1.00
2023-12-20T05:40:01.585Z,0.80
2023-12-20T05:52:00.497Z,1.10
2023-12-20T05:57:05.181Z,1.20
2023-12-20T06:02:16.685Z,1.10
2023-12-20T06:07:38.824Z,1.50
2023-12-20T06:12:59.257Z,1.40
2023-12-20T06:18:19.340Z,1.47
2023-12-20T06:23:32.150Z,1.27
2023-12-20T06:28:53.135Z,1.60
2023-12-20T06:34:23.669Z,1.27
2023-12-20T06:39:38.288Z,1.70
2023-12-20T06:45:02.312Z,1.70
2023-12-20T06:50:33.155Z,1.50
2023-12-20T06:55:39.218Z,1.60
2023-12-20T07:00:44.356Z,2.00
2023-12-20T07:05:53.698Z,1.63
2023-12-20T07:11:00.704Z,1.67
2023-12-20T07:16:04.406Z,2.07
2023-12-20T07:21:09.414Z,2.07
2023-12-20T07:26:13.892Z,2.13
2023-12-20T07:31:18.706Z,1.83
2023-12-20T07:36:42.917Z,1.90
2023-12-20T07:41:55.954Z,2.40
2023-12-20T07:47:10.333Z,1.97
2023-12-20T07:52:20.457Z,2.17
2023-12-20T07:57:48.765Z,2.47
2023-12-20T08:02:57.293Z,2.83
2023-12-20T08:08:11.533Z,4.20
2023-12-20T08:13:24.676Z,3.97
2023-12-20T08:18:32.494Z,3.60
2023-12-20T08:23:55.030Z,3.30
2023-12-20T08:29:09.930Z,3.13
2023-12-20T08:34:29.215Z,3.13
2023-12-20T08:40:13.169Z,4.20
2023-12-20T08:45:43.322Z,3.83
2023-12-20T08:51:10.331Z,3.80
2023-12-20T08:56:35.715Z,3.77
2023-12-20T09:07:42.774Z,4.70
2023-12-20T09:12:58.630Z,4.97
2023-12-20T09:18:37.019Z,4.80
2023-12-20T09:23:58.218Z,6.17
2023-12-20T09:29:10.663Z,6.20
2023-12-20T09:34:19.527Z,5.33
2023-12-20T09:39:33.995Z,5.37
2023-12-20T09:44:49.039Z,5.93
2023-12-20T09:50:03.305Z,4.93
2023-12-20T09:55:34.530Z,4.50
2023-12-20T10:00:41.930Z,4.30
2023-12-20T10:05:51.255Z,3.60
2023-12-20T10:11:05.410Z,3.77
2023-12-20T10:16:21.863Z,3.10
2023-12-20T10:21:27.775Z,3.80
2023-12-20T10:26:35.445Z,2.70
2023-12-20T10:31:40.263Z,3.30
2023-12-20T10:36:47.022Z,3.60
2023-12-20T10:41:56.351Z,3.20
2023-12-20T10:47:00.684Z,3.00
2023-12-20T10:52:08.993Z,2.70
2023-12-20T10:57:14.215Z,3.10
2023-12-20T11:02:17.869Z,2.73
2023-12-20T11:07:24.401Z,2.73
2023-12-20T11:12:34.659Z,2.90
2023-12-20T11:17:38.813Z,2.70
2023-12-20T11:22:54.701Z,3.03
2023-12-20T11:28:13.046Z,2.83
2023-12-20T11:33:18.000Z,2.47
2023-12-20T11:38:22.786Z,2.87
2023-12-20T11:43:34.677Z,2.80
2023-12-20T11:48:40.081Z,2.30
2023-12-20T11:53:43.841Z,2.20
2023-12-20T11:58:51.181Z,2.40
2023-12-20T12:04:04.995Z,2.10
2023-12-20T12:09:08.712Z,2.23
2023-12-20T12:14:16.828Z,1.97
2023-12-20T12:19:23.716Z,2.47
2023-12-20T12:24:27.538Z,2.30
2023-12-20T12:29:33.311Z,2.10
2023-12-20T12:34:37.325Z,2.13
2023-12-20T12:39:41.792Z,2.00
2023-12-20T12:44:46.620Z,2.10
2023-12-20T12:49:51.919Z,1.97
2023-12-20T12:54:55.492Z,2.43
2023-12-20T13:00:00.954Z,2.30
2023-12-20T13:05:05.887Z,2.40
2023-12-20T13:10:10.853Z,2.20
2023-12-20T13:15:15.927Z,2.30
2023-12-20T13:20:19.654Z,1.97
2023-12-20T13:25:23.328Z,2.10
2023-12-20T13:30:28.875Z,2.53
2023-12-20T13:35:33.343Z,2.07
2023-12-20T13:40:37.921Z,2.83
2023-12-20T13:45:43.885Z,1.63
2023-12-20T13:50:50.486Z,2.47
2023-12-20T13:55:55.156Z,2.30
2023-12-20T14:01:01.776Z,2.63
2023-12-20T14:06:06.188Z,2.43
2023-12-20T14:11:10.317Z,2.63
2023-12-20T14:16:15.755Z,2.30
2023-12-20T14:21:19.470Z,2.70
2023-12-20T14:26:23.020Z,5.50
2023-12-20T14:31:27.796Z,2.10
2023-12-20T14:36:32.384Z,2.50
2023-12-20T14:41:40.483Z,2.30
2023-12-20T14:46:45.257Z,2.90
2023-12-20T14:51:49.518Z,2.73
2023-12-20T14:56:52.915Z,2.90
2023-12-20T15:01:58.070Z,2.30
2023-12-20T15:07:03.680Z,1.77
2023-12-20T15:12:07.935Z,2.63
2023-12-20T15:17:12.675Z,3.27
2023-12-20T15:22:16.884Z,1.60
2023-12-20T15:27:22.039Z,2.67
2023-12-20T15:32:28.719Z,2.70
2023-12-20T15:37:33.355Z,2.30
2023-12-20T15:42:37.746Z,2.67
2023-12-20T15:47:43.199Z,2.87
2023-12-20T15:52:47.697Z,2.43
2023-12-20T15:57:55.136Z,2.40
2023-12-20T16:03:00.589Z,3.00
2023-12-20T16:08:05.675Z,6.73
2023-12-20T16:13:10.213Z,4.10
2023-12-20T16:18:15.762Z,4.30
2023-12-20T16:23:20.179Z,2.40
2023-12-20T16:28:25.353Z,3.30
2023-12-20T16:33:30.149Z,3.80
2023-12-20T16:38:36.765Z,2.60
2023-12-20T16:43:41.138Z,2.50
2023-12-20T16:48:46.756Z,3.37
2023-12-20T16:53:51.028Z,3.27
2023-12-20T16:58:57.648Z,3.37
2023-12-20T17:04:02.709Z,4.77
2023-12-20T17:09:06.155Z,2.70
2023-12-20T17:14:12.201Z,4.47
2023-12-20T17:19:19.334Z,2.70
2023-12-20T17:24:23.963Z,3.17
2023-12-20T17:29:28.023Z,3.97
2023-12-20T17:34:34.049Z,2.37
2023-12-20T17:39:38.279Z,3.63
2023-12-20T17:44:42.404Z,2.47
2023-12-20T17:49:47.378Z,2.67
2023-12-20T17:54:50.791Z,1.90
2023-12-20T17:59:54.943Z,2.50
2023-12-20T18:04:59.640Z,2.13
2023-12-20T18:10:05.392Z,3.17
2023-12-20T18:15:09.329Z,2.00
2023-12-20T18:20:15.852Z,2.40
2023-12-20T18:25:19.812Z,2.13
2023-12-20T18:30:25.881Z,1.70
2023-12-20T18:35:32.179Z,1.87
2023-12-20T18:40:35.549Z,2.27
2023-12-20T18:45:39.865Z,2.37
2023-12-20T18:50:45.007Z,2.47
2023-12-20T18:55:48.433Z,2.33
2023-12-20T19:00:51.869Z,2.30
2023-12-20T19:05:58.993Z,2.53
2023-12-20T19:11:02.422Z,1.93
2023-12-20T19:16:06.531Z,2.03
2023-12-20T19:21:11.194Z,2.27
2023-12-20T19:26:15.942Z,1.70
2023-12-20T19:31:20.992Z,2.60
2023-12-20T19:36:25.752Z,2.47
2023-12-20T19:41:29.203Z,2.57
2023-12-20T19:46:32.608Z,2.30
2023-12-20T19:51:37.478Z,2.33
2023-12-20T19:56:40.832Z,1.87
2023-12-20T20:01:45.080Z,2.10
2023-12-20T20:06:52.164Z,2.10
2023-12-20T20:11:55.956Z,2.97
2023-12-20T20:17:01.120Z,2.10
2023-12-20T20:22:07.428Z,1.73
2023-12-20T20:27:10.813Z,1.87
2023-12-20T20:32:14.982Z,2.90
2023-12-20T20:37:20.491Z,2.17
2023-12-20T20:42:23.830Z,2.10
2023-12-20T20:47:27.265Z,2.40
2023-12-20T20:52:33.353Z,2.57
2023-12-20T20:57:36.649Z,2.43
2023-12-20T21:02:40.701Z,1.47
2023-12-20T21:07:46.577Z,1.83
2023-12-20T21:12:50.579Z,1.60
2023-12-20T21:17:54.746Z,1.63
2023-12-20T21:23:00.085Z,2.00
2023-12-20T21:28:03.500Z,1.70
2023-12-20T21:33:07.407Z,1.80
2023-12-20T21:38:12.172Z,1.63
2023-12-20T21:43:15.621Z,1.73
2023-12-20T21:48:19.715Z,1.83
2023-12-20T21:53:26.002Z,1.40
2023-12-20T21:58:29.415Z,1.30
2023-12-20T22:03:32.846Z,1.43
2023-12-20T22:08:37.952Z,1.47
2023-12-20T22:13:41.323Z,1.40
2023-12-20T22:18:46.272Z,1.50
2023-12-20T22:23:50.957Z,1.60
2023-12-20T22:28:54.376Z,1.20
2023-12-20T22:33:57.836Z,1.60
2023-12-20T22:39:02.982Z,1.17
2023-12-20T22:44:06.380Z,1.67
2023-12-20T22:49:10.599Z,1.40
2023-12-20T22:54:15.268Z,1.80
2023-12-20T22:59:19.577Z,1.40
2023-12-20T23:04:25.109Z,1.47
2023-12-20T23:09:29.791Z,1.40
2023-12-20T23:14:35.828Z,1.90
2023-12-20T23:19:39.218Z,1.30
2023-12-20T23:24:44.783Z,1.23
2023-12-20T23:29:48.664Z,1.00
2023-12-20T23:35:04.509Z,1.30
2023-12-20T23:40:14.411Z,1.00
2023-12-20T23:45:18.083Z,1.10
2023-12-20T23:50:21.561Z,0.70
2023-12-20T23:55:26.394Z,1.10
